Time;durP1;ratioP1;P1;durP2;ratioP2;P2;SDS_P1;SDS_P2;PMS_P1;PMS_P2;Temp;Humidity;BMP_temperature;BMP_pressure;BME280_temperature;BME280_humidity;BME280_pressure;Samples;Min_cycle;Max_cycle;Signal;HPM_P1;HPM_P2
2021/01/04 00:00:02;;;;;;;16.98;12.55;;;;;;;2.75;82.23;98461.66;4936542;29;20238;-86
2021/01/04 00:03:04;;;;;;;19.05;12.40;;;;;;;2.81;82.56;98467.56;4937676;29;20221;-85
2021/01/04 00:05:39;;;;;;;17.95;12.77;;;;;;;2.81;82.63;98467.56;4943112;29;20237;-85
2021/01/04 00:08:30;;;;;;;17.05;12.50;;;;;;;2.78;82.53;98465.06;4925476;29;20216;-84
2021/01/04 00:11:35;;;;;;;17.23;13.10;;;;;;;2.78;82.60;98461.53;4935730;28;20728;-85
2021/01/04 00:14:16;;;;;;;16.98;12.95;;;;;;;2.81;82.95;98454.28;4982810;28;20249;-85
2021/01/04 00:17:14;;;;;;;15.98;12.48;;;;;;;2.78;82.60;98446.47;4989706;28;20244;-85
2021/01/04 00:20:00;;;;;;;17.58;13.23;;;;;;;2.79;82.44;98442.88;4954928;28;20218;-86
2021/01/04 00:23:07;;;;;;;20.67;13.27;;;;;;;2.67;82.32;98442.56;4941834;28;20304;-84
2021/01/04 00:25:36;;;;;;;16.55;12.65;;;;;;;2.66;82.69;98451.47;4932406;28;20304;-84
2021/01/04 00:28:06;;;;;;;18.48;12.88;;;;;;;2.66;83.05;98452.34;4917974;29;20317;-85
2021/01/04 00:30:57;;;;;;;18.77;14.13;;;;;;;2.60;82.99;98452.59;4912276;29;20246;-84
2021/01/04 00:33:29;;;;;;;15.48;12.00;;;;;;;2.59;82.84;98445.59;4923499;28;20301;-85
2021/01/04 00:36:00;;;;;;;16.27;11.75;;;;;;;2.57;83.21;98447.41;4938317;28;20269;-85
2021/01/04 00:38:57;;;;;;;20.33;13.52;;;;;;;2.59;82.83;98440.28;4939898;28;20206;-84
2021/01/04 00:41:59;;;;;;;18.40;13.07;;;;;;;2.58;83.04;98445.66;4897337;29;20290;-86
2021/01/04 00:44:57;;;;;;;19.38;13.18;;;;;;;2.61;83.02;98440.19;4893611;29;20293;-85
2021/01/04 00:47:58;;;;;;;17.27;12.95;;;;;;;2.59;82.99;98442.06;4937830;29;20232;-84
2021/01/04 00:50:59;;;;;;;16.42;11.57;;;;;;;2.57;82.94;98439.47;4917528;29;20226;-85
2021/01/04 00:53:31;;;;;;;16.48;12.48;;;;;;;2.55;83.07;98438.69;4927323;29;20265;-85
2021/01/04 00:56:18;;;;;;;22.25;14.40;;;;;;;2.52;83.21;98433.50;4911354;28;20233;-85
2021/01/04 00:59:12;;;;;;;18.77;13.95;;;;;;;2.50;83.14;98432.72;4915724;28;20226;-83
2021/01/04 01:01:48;;;;;;;20.90;14.38;;;;;;;2.47;83.44;98440.81;4915604;29;20711;-85
2021/01/04 01:04:32;;;;;;;18.27;13.68;;;;;;;2.44;83.19;98440.94;4930970;28;20241;-87
2021/01/04 01:07:14;;;;;;;16.90;12.32;;;;;;;2.35;83.56;98443.13;4920131;28;20206;-88
2021/01/04 01:09:56;;;;;;;18.73;12.57;;;;;;;2.44;83.63;98446.25;4908743;29;20393;-87
2021/01/04 01:13:05;;;;;;;19.23;12.77;;;;;;;2.52;83.34;98454.72;4900427;28;20683;-86
2021/01/04 01:15:36;;;;;;;17.52;12.63;;;;;;;2.53;83.03;98453.81;4890024;29;20233;-86
2021/01/04 01:18:09;;;;;;;19.15;13.73;;;;;;;2.53;83.02;98451.16;4928361;29;20646;-87
2021/01/04 01:20:44;;;;;;;21.42;13.02;;;;;;;2.59;83.00;98450.91;4933299;29;20206;-88
2021/01/04 01:23:14;;;;;;;16.95;13.10;;;;;;;2.65;83.21;98455.06;4900487;29;20230;-87
2021/01/04 01:25:48;;;;;;;18.85;13.05;;;;;;;2.73;82.86;98456.44;4917828;28;20316;-87
2021/01/04 01:28:39;;;;;;;17.10;13.10;;;;;;;2.69;82.46;98457.50;4901995;29;20276;-87
2021/01/04 01:31:49;;;;;;;17.30;13.68;;;;;;;2.65;82.86;98463.84;4920397;28;20274;-87
2021/01/04 01:34:23;;;;;;;17.50;13.13;;;;;;;2.61;82.66;98464.94;4919272;29;20273;-86
2021/01/04 01:37:15;;;;;;;19.58;12.88;;;;;;;2.67;83.01;98459.38;4927668;28;20241;-86
2021/01/04 01:40:19;;;;;;;16.85;12.63;;;;;;;2.78;82.90;98467.72;4918148;29;20309;-87
2021/01/04 01:42:57;;;;;;;17.08;12.52;;;;;;;2.77;82.42;98465.97;4939146;28;20285;-87
2021/01/04 01:45:46;;;;;;;20.48;14.00;;;;;;;2.91;82.78;98465.34;4923930;28;20230;-86
2021/01/04 01:49:00;;;;;;;15.65;11.95;;;;;;;2.78;81.94;98467.72;4909226;28;20290;-87
2021/01/04 01:51:54;;;;;;;19.10;12.18;;;;;;;2.90;81.86;98474.25;4923153;29;20294;-85
2021/01/04 01:55:01;;;;;;;20.60;12.30;;;;;;;2.81;81.25;98467.56;4941383;28;20299;-86
2021/01/04 01:57:55;;;;;;;17.10;11.82;;;;;;;2.69;81.64;98473.41;4941614;28;20261;-87
2021/01/04 02:01:15;;;;;;;20.85;12.52;;;;;;;2.67;81.88;98475.28;4918615;28;20230;-87
2021/01/04 02:03:50;;;;;;;18.63;12.57;;;;;;;2.74;82.09;98468.78;4898576;29;20233;-87
2021/01/04 02:06:35;;;;;;;19.05;12.57;;;;;;;2.77;82.24;98471.28;4882912;29;20233;-86
2021/01/04 02:09:11;;;;;;;17.77;12.13;;;;;;;2.91;81.69;98470.66;4894467;28;20602;-87
2021/01/04 02:12:09;;;;;;;15.45;12.00;;;;;;;2.91;82.02;98470.66;4916327;29;20244;-85
2021/01/04 02:14:39;;;;;;;17.27;11.50;;;;;;;2.86;81.48;98464.69;4912064;29;20230;-86
2021/01/04 02:17:20;;;;;;;15.63;11.43;;;;;;;2.90;81.89;98467.13;4924916;29;20240;-86
2021/01/04 02:20:28;;;;;;;18.10;11.98;;;;;;;2.91;81.92;98470.66;4930620;29;20244;-86
2021/01/04 02:22:58;;;;;;;14.18;11.35;;;;;;;2.82;81.66;98463.97;4920748;28;20241;-86
2021/01/04 02:25:32;;;;;;;15.95;11.30;;;;;;;2.83;82.14;98465.69;4923199;28;20661;-87
2021/01/04 02:28:03;;;;;;;16.15;11.15;;;;;;;2.85;81.99;98471.81;4908175;28;20221;-87
2021/01/04 02:30:29;;;;;;;17.65;11.63;;;;;;;2.75;82.20;98474.91;4899452;29;20234;-86
2021/01/04 02:32:59;;;;;;;15.70;10.95;;;;;;;2.72;81.87;98468.00;4905285;29;20218;-86
2021/01/04 02:35:26;;;;;;;15.93;11.25;;;;;;;2.74;82.18;98466.13;4923364;29;20214;-86
2021/01/04 02:37:53;;;;;;;17.33;11.80;;;;;;;2.78;82.04;98473.03;4903191;28;20272;-87
2021/01/04 02:40:19;;;;;;;17.00;11.95;;;;;;;2.78;81.57;98467.72;4889739;29;20238;-87
2021/01/04 02:42:48;;;;;;;17.75;12.20;;;;;;;2.77;81.50;98471.28;4931523;28;20697;-87
2021/01/04 02:45:30;;;;;;;18.83;12.07;;;;;;;2.76;81.49;98474.84;4911461;29;20411;-86
2021/01/04 02:48:08;;;;;;;18.88;11.98;;;;;;;2.74;81.13;98474.06;4923474;28;20210;-86
2021/01/04 02:50:56;;;;;;;16.90;12.23;;;;;;;2.73;81.28;98475.00;4927202;29;20980;-85
2021/01/04 02:53:41;;;;;;;18.55;12.45;;;;;;;2.62;81.80;98471.09;4907274;29;20225;-86
2021/01/04 02:56:32;;;;;;;19.27;12.02;;;;;;;2.72;81.43;98467.13;4912917;28;20267;-86
2021/01/04 02:59:10;;;;;;;20.10;11.98;;;;;;;2.70;81.30;98472.47;4924932;29;20238;-86
2021/01/04 03:01:52;;;;;;;19.85;11.77;;;;;;;2.81;81.27;98472.00;4936848;28;20331;-86
2021/01/04 03:04:21;;;;;;;18.88;11.88;;;;;;;2.80;81.17;98468.50;4928058;28;20285;-86
2021/01/04 03:06:55;;;;;;;16.17;11.82;;;;;;;2.81;81.09;98467.56;4931180;28;20230;-86
2021/01/04 03:09:28;;;;;;;21.65;12.35;;;;;;;2.85;80.92;98468.28;4911944;28;20315;-87
2021/01/04 03:12:09;;;;;;;20.08;13.55;;;;;;;2.80;81.12;98468.50;4877967;29;20226;-84
2021/01/04 03:15:33;;;;;;;23.30;13.02;;;;;;;2.75;81.27;98466.97;4907300;29;20206;-86
2021/01/04 03:18:27;;;;;;;20.40;13.50;;;;;;;2.74;81.15;98467.91;4884499;28;20233;-86
2021/01/04 03:20:53;;;;;;;22.27;13.88;;;;;;;2.66;81.75;98468.25;4928239;29;20186;-87
2021/01/04 03:23:20;;;;;;;20.90;12.95;;;;;;;2.68;81.66;98466.38;4879890;29;20427;-86
2021/01/04 03:26:07;;;;;;;20.23;13.38;;;;;;;2.76;81.70;98464.25;4930904;28;20241;-85
2021/01/04 03:28:33;;;;;;;25.90;13.68;;;;;;;2.79;81.69;98465.91;4935067;28;20244;-87
2021/01/04 03:31:01;;;;;;;21.15;13.30;;;;;;;2.73;81.43;98464.41;4920053;29;20222;-86
2021/01/04 03:33:30;;;;;;;24.92;14.77;;;;;;;2.69;82.68;98464.63;4911457;28;20226;-87
2021/01/04 03:35:56;;;;;;;23.92;14.48;;;;;;;2.70;82.54;98469.81;4888355;29;20199;-86
2021/01/04 03:38:23;;;;;;;26.67;14.60;;;;;;;2.65;82.44;98461.19;4940221;28;20200;-85
2021/01/04 03:40:50;;;;;;;22.02;13.65;;;;;;;2.64;82.85;98469.25;4931845;28;20238;-85
2021/01/04 03:43:17;;;;;;;24.70;14.88;;;;;;;2.65;82.99;98463.00;4936854;28;20302;-86
2021/01/04 03:45:43;;;;;;;25.02;13.90;;;;;;;2.60;83.04;98457.91;4899839;29;20226;-87
2021/01/04 03:48:10;;;;;;;24.27;14.80;;;;;;;2.67;83.08;98467.31;4903459;29;20219;-86
2021/01/04 03:50:37;;;;;;;26.92;14.40;;;;;;;2.67;83.29;98463.78;4915176;29;20198;-87
2021/01/04 03:53:04;;;;;;;23.98;15.27;;;;;;;2.64;83.63;98461.28;4937008;28;20274;-86
2021/01/04 03:55:30;;;;;;;27.77;15.63;;;;;;;2.58;83.76;98459.75;4906384;29;20222;-86
2021/01/04 03:57:57;;;;;;;24.98;14.52;;;;;;;2.69;83.82;98462.78;4937545;28;20779;-87
2021/01/04 04:00:26;;;;;;;29.15;16.10;;;;;;;2.74;83.89;98462.59;4917069;28;20234;-87
2021/01/04 04:02:54;;;;;;;27.15;16.17;;;;;;;2.75;83.50;98461.66;4937203;29;20299;-85
2021/01/04 04:05:21;;;;;;;22.83;14.13;;;;;;;2.67;83.64;98459.38;4908249;29;20290;-86
2021/01/04 04:07:47;;;;;;;28.00;16.05;;;;;;;2.69;83.68;98468.09;4902724;28;20302;-86
2021/01/04 04:10:17;;;;;;;25.92;14.50;;;;;;;2.72;83.69;98473.28;4905003;29;20328;-87
2021/01/04 04:12:43;;;;;;;24.30;14.30;;;;;;;2.74;83.34;98467.91;4925448;28;20250;-87
2021/01/04 04:15:12;;;;;;;23.30;14.07;;;;;;;2.75;83.08;98466.97;4885203;29;20195;-87
2021/01/04 04:17:39;;;;;;;23.23;13.55;;;;;;;2.73;82.96;98472.34;4919127;29;20238;-87
2021/01/04 04:20:11;;;;;;;24.30;14.40;;;;;;;2.72;83.21;98468.00;4919838;29;20229;-86
2021/01/04 04:22:37;;;;;;;23.90;13.75;;;;;;;2.78;83.03;98477.47;4913587;29;20514;-87
2021/01/04 04:25:06;;;;;;;23.95;14.50;;;;;;;2.71;82.97;98474.19;4911233;28;20226;-87
2021/01/04 04:27:34;;;;;;;23.00;13.93;;;;;;;2.78;83.21;98474.81;4910013;29;20221;-87
2021/01/04 04:30:08;;;;;;;26.35;14.48;;;;;;;2.75;83.04;98474.91;4900371;28;20218;-87
2021/01/04 04:32:38;;;;;;;27.20;16.02;;;;;;;2.80;83.39;98484.41;4931269;29;20217;-86
2021/01/04 04:35:09;;;;;;;28.83;14.52;;;;;;;2.76;83.63;98474.03;4893421;29;20217;-87
2021/01/04 04:37:41;;;;;;;25.25;14.88;;;;;;;2.78;83.61;98473.03;4928240;28;20233;-84
2021/01/04 04:40:17;;;;;;;25.55;13.82;;;;;;;2.83;83.89;98478.97;4916045;28;20205;-86
2021/01/04 04:42:46;;;;;;;25.55;14.73;;;;;;;2.87;83.68;98477.91;4930322;28;20226;-86
2021/01/04 04:45:18;;;;;;;26.48;14.93;;;;;;;2.84;83.92;98474.53;4937961;28;20225;-86
2021/01/04 04:48:08;;;;;;;26.75;15.45;;;;;;;2.73;84.21;98484.75;4921478;29;20273;-86
2021/01/04 04:50:56;;;;;;;26.65;14.57;;;;;;;2.68;84.37;98477.00;4918608;29;20222;-86
2021/01/04 04:53:34;;;;;;;28.30;15.50;;;;;;;2.65;84.55;98479.78;4915467;29;20218;-86
2021/01/04 04:56:10;;;;;;;26.70;15.52;;;;;;;2.63;84.64;98476.34;4930977;28;20229;-87
2021/01/04 04:59:04;;;;;;;30.25;16.08;;;;;;;2.64;84.75;98470.09;4939456;28;20229;-85
2021/01/04 05:01:48;;;;;;;27.90;16.45;;;;;;;2.61;84.92;98469.38;4911235;29;20240;-85
2021/01/04 05:04:48;;;;;;;27.13;15.70;;;;;;;2.73;84.72;98468.81;4940652;29;20226;-87
2021/01/04 05:07:43;;;;;;;25.63;14.98;;;;;;;2.82;84.35;98471.09;4911627;28;20230;-85
2021/01/04 05:10:21;;;;;;;25.80;14.70;;;;;;;2.78;84.11;98475.69;4906444;29;20220;-85
2021/01/04 05:13:01;;;;;;;22.95;14.68;;;;;;;2.83;84.29;98468.34;4934131;28;20297;-85
2021/01/04 05:15:48;;;;;;;25.83;15.32;;;;;;;2.81;83.86;98472.00;4912907;29;20240;-85
2021/01/04 05:18:25;;;;;;;26.35;15.10;;;;;;;2.89;83.18;98478.69;4938248;28;20218;-86
2021/01/04 05:21:13;;;;;;;21.88;14.07;;;;;;;2.93;83.27;98471.44;4930530;29;20259;-85
2021/01/04 05:23:58;;;;;;;25.17;14.68;;;;;;;2.94;83.04;98474.03;4941967;28;20218;-85
2021/01/04 05:26:40;;;;;;;23.20;14.57;;;;;;;2.88;83.05;98481.44;4944202;28;20294;-85
2021/01/04 05:29:31;;;;;;;22.92;13.43;;;;;;;2.86;82.64;98484.16;4933587;28;20252;-85
2021/01/04 05:32:16;;;;;;;23.52;15.73;;;;;;;2.87;82.64;98477.91;4928747;28;20231;-86
2021/01/04 05:34:50;;;;;;;23.58;14.05;;;;;;;2.91;82.45;98484.81;4924181;28;20256;-86
2021/01/04 05:37:38;;;;;;;21.48;13.50;;;;;;;2.87;82.60;98483.22;4945173;28;20258;-83
2021/01/04 05:40:29;;;;;;;26.70;15.80;;;;;;;2.83;83.00;98481.63;4927922;28;20225;-83
2021/01/04 05:43:04;;;;;;;25.88;15.05;;;;;;;2.75;83.23;98489.06;4930390;28;20230;-85
2021/01/04 05:45:40;;;;;;;23.35;14.18;;;;;;;2.79;83.42;98480.06;4913794;29;20236;-85
2021/01/04 05:48:12;;;;;;;21.48;14.07;;;;;;;2.87;83.53;98485.88;4929860;28;20228;-86
2021/01/04 05:51:01;;;;;;;23.65;14.07;;;;;;;2.95;83.04;98489.03;4915098;29;20217;-86
2021/01/04 05:53:28;;;;;;;24.13;16.00;;;;;;;2.93;83.06;98488.25;4939212;29;20229;-86
2021/01/04 05:55:57;;;;;;;23.88;14.35;;;;;;;2.89;82.92;98488.47;4915469;29;20253;-87
2021/01/04 05:58:32;;;;;;;24.55;15.00;;;;;;;2.91;82.88;98492.78;4898360;29;20240;-87
2021/01/04 06:01:08;;;;;;;26.05;15.52;;;;;;;2.85;83.22;98493.06;4910804;28;20229;-86
2021/01/04 06:03:37;;;;;;;28.38;16.65;;;;;;;2.96;83.14;98488.09;4907445;29;20226;-87
2021/01/04 06:06:32;;;;;;;26.00;16.52;;;;;;;2.78;83.28;98486.28;4930540;28;20270;-87
2021/01/04 06:09:13;;;;;;;27.38;16.65;;;;;;;2.97;83.05;98487.16;4905302;28;20541;-87
2021/01/04 06:11:56;;;;;;;27.75;16.58;;;;;;;2.84;82.94;98493.94;4918297;29;20216;-85
2021/01/04 06:14:25;;;;;;;27.45;15.23;;;;;;;2.84;83.28;98487.81;4887899;29;20255;-87
2021/01/04 06:17:02;;;;;;;27.58;15.73;;;;;;;2.87;83.42;98488.53;4902192;28;20232;-86
2021/01/04 06:19:35;;;;;;;23.02;15.18;;;;;;;2.90;83.25;98487.53;4863610;29;20321;-87
2021/01/04 06:22:18;;;;;;;24.17;16.00;;;;;;;2.93;83.06;98490.03;4934257;28;20260;-86
2021/01/04 06:24:46;;;;;;;28.60;17.00;;;;;;;2.90;83.58;98491.03;4928825;28;20226;-87
2021/01/04 06:30:34;;;;;;;28.95;18.35;;;;;;;2.97;83.01;98500.44;4952920;28;20204;-85
2021/01/04 06:33:15;;;;;;;24.20;16.13;;;;;;;2.83;83.41;98502.00;4982734;28;20204;-83
2021/01/04 06:35:43;;;;;;;28.10;17.67;;;;;;;2.77;83.40;98497.81;4965897;28;20226;-85
2021/01/04 06:38:21;;;;;;;25.02;16.42;;;;;;;2.84;83.47;98501.91;4954255;29;20224;-86
2021/01/04 06:40:48;;;;;;;27.60;16.90;;;;;;;2.73;83.60;98506.88;4920200;29;20241;-86
2021/01/04 06:43:26;;;;;;;29.10;17.55;;;;;;;2.76;83.79;98508.53;4934970;29;20228;-86
2021/01/04 06:46:31;;;;;;;23.88;15.70;;;;;;;2.86;83.59;98505.38;4937614;28;20230;-86
2021/01/04 06:49:16;;;;;;;33.53;18.58;;;;;;;2.98;83.29;98507.50;4913589;28;20255;-86
2021/01/04 06:51:51;;;;;;;28.55;16.60;;;;;;;2.93;83.24;98509.50;4924260;28;20238;-87
2021/01/04 06:54:48;;;;;;;27.58;16.13;;;;;;;2.89;83.43;98512.34;4936128;28;20311;-86
2021/01/04 06:57:52;;;;;;;31.08;18.80;;;;;;;2.87;83.56;98509.75;4932652;28;20246;-86
2021/01/04 07:00:53;;;;;;;28.98;17.58;;;;;;;2.91;83.82;98506.06;4947874;28;20224;-86
2021/01/04 07:03:58;;;;;;;27.30;15.60;;;;;;;2.84;83.52;98507.22;4921193;29;20224;-86
2021/01/04 07:07:01;;;;;;;25.02;16.17;;;;;;;2.95;83.86;98517.41;4903989;28;20256;-86
2021/01/04 07:10:07;;;;;;;25.50;16.17;;;;;;;2.94;83.66;98519.19;4913418;29;20232;-86
2021/01/04 07:12:55;;;;;;;25.95;15.82;;;;;;;2.89;83.36;98523.81;4930388;28;20233;-86
2021/01/04 07:15:27;;;;;;;28.25;15.65;;;;;;;2.89;83.49;98526.47;4901918;29;20228;-86
2021/01/04 07:18:03;;;;;;;26.10;16.17;;;;;;;2.86;83.84;98523.97;4946022;29;20196;-84
2021/01/04 07:20:46;;;;;;;26.10;16.13;;;;;;;2.89;83.73;98529.13;4954209;28;20220;-85
2021/01/04 07:23:33;;;;;;;27.08;16.75;;;;;;;2.91;83.50;98537.03;4937874;29;20221;-86
2021/01/04 07:29:30;;;;;;;25.25;16.00;;;;;;;2.86;83.57;98533.72;4935987;28;20239;-83
2021/01/04 07:32:24;;;;;;;26.25;15.88;;;;;;;2.83;83.51;98528.56;4904324;28;20275;-85
2021/01/04 07:35:01;;;;;;;26.27;16.40;;;;;;;2.87;83.25;98536.31;4911891;29;20224;-85
2021/01/04 07:37:52;;;;;;;30.77;17.90;;;;;;;2.91;83.46;98534.38;4945818;28;20214;-85
2021/01/04 07:40:44;;;;;;;32.25;17.38;;;;;;;2.92;83.62;98536.09;4929742;29;20229;-84
2021/01/04 07:43:57;;;;;;;28.63;17.85;;;;;;;2.97;83.70;98536.75;4936236;28;20236;-86
2021/01/04 07:46:38;;;;;;;35.13;20.25;;;;;;;2.98;84.06;98541.13;4898026;28;20229;-85
2021/01/04 07:49:38;;;;;;;36.88;18.15;;;;;;;2.96;84.37;98546.50;4917712;29;20779;-86
2021/01/04 07:52:56;;;;;;;36.55;22.17;;;;;;;2.87;85.12;98544.28;4918611;29;20229;-86
2021/01/04 07:55:45;;;;;;;33.92;20.13;;;;;;;2.84;85.05;98543.56;4949077;28;20221;-86
2021/01/04 07:58:30;;;;;;;33.83;18.50;;;;;;;2.83;84.97;98550.63;4938693;28;20245;-85
2021/01/04 08:01:27;;;;;;;31.80;17.75;;;;;;;2.80;85.06;98550.78;4930682;28;20232;-86
2021/01/04 08:04:03;;;;;;;34.70;19.23;;;;;;;2.82;85.36;98556.88;4933318;28;20242;-88
2021/01/04 08:06:40;;;;;;;32.13;17.95;;;;;;;2.87;85.51;98554.91;4938164;28;20211;-85
2021/01/04 08:09:40;;;;;;;33.17;18.35;;;;;;;2.77;85.55;98550.06;4926831;28;20249;-85
2021/01/04 08:12:16;;;;;;;31.92;18.50;;;;;;;2.72;85.85;98558.22;4958837;28;20229;-85
2021/01/04 08:15:04;;;;;;;31.55;17.38;;;;;;;2.64;85.55;98552.38;4913079;29;20293;-85
2021/01/04 08:18:07;;;;;;;28.75;16.77;;;;;;;2.77;85.66;98553.56;4947830;29;20292;-87
2021/01/04 08:21:03;;;;;;;34.40;21.27;;;;;;;2.68;85.45;98561.94;4942314;29;20304;-87
2021/01/04 08:23:32;;;;;;;31.75;18.40;;;;;;;2.76;85.51;98553.66;4909666;23;20242;-86
2021/01/04 08:26:30;;;;;;;31.13;19.20;;;;;;;2.85;85.40;98545.28;4928349;28;20220;-85
2021/01/04 08:29:15;;;;;;;31.23;18.88;;;;;;;2.83;85.02;98545.31;4989871;28;20610;-87
2021/01/04 08:31:46;;;;;;;35.40;18.65;;;;;;;2.72;85.02;98539.66;4994984;28;20257;-86
2021/01/04 08:34:20;;;;;;;33.45;19.30;;;;;;;2.82;84.73;98553.38;4956462;28;20258;-86
2021/01/04 08:36:58;;;;;;;35.97;18.63;;;;;;;2.96;84.74;98551.81;4975831;28;20257;-88
2021/01/04 08:39:44;;;;;;;29.67;18.75;;;;;;;2.92;84.00;98554.69;4975163;28;20662;-87
2021/01/04 08:42:28;;;;;;;34.72;17.83;;;;;;;2.96;83.97;98549.16;4956139;28;20196;-86
2021/01/04 08:45:01;;;;;;;33.05;20.05;;;;;;;2.85;84.13;98553.22;4965438;28;20263;-87
2021/01/04 08:47:52;;;;;;;27.70;17.40;;;;;;;2.81;83.96;98552.50;4969958;28;20227;-87
2021/01/04 08:50:49;;;;;;;33.35;19.23;;;;;;;2.82;84.34;98551.56;4987677;28;20254;-85
2021/01/04 08:53:22;;;;;;;32.65;20.23;;;;;;;2.84;84.06;98547.03;4966016;28;20294;-85
2021/01/04 08:56:13;;;;;;;30.50;18.15;;;;;;;2.96;83.84;98558.94;4954357;28;20214;-87
2021/01/04 09:02:06;;;;;;;35.42;19.67;;;;;;;2.92;83.56;98563.53;4968170;23;20284;-85
2021/01/04 09:04:38;;;;;;;31.73;18.75;;;;;;;2.90;83.43;98570.66;4875532;29;20661;-87
2021/01/04 09:07:18;;;;;;;28.70;17.77;;;;;;;3.02;83.36;98567.47;4844897;29;20225;-86
2021/01/04 09:10:51;;;;;;;30.42;17.98;;;;;;;2.98;83.85;98555.28;4878892;29;20237;-85
2021/01/04 09:13:39;;;;;;;32.03;20.40;;;;;;;3.14;83.38;98556.31;4937785;28;20221;-84
2021/01/04 09:16:31;;;;;;;32.97;18.90;;;;;;;3.12;83.46;98566.16;4900821;29;20253;-85
2021/01/04 09:19:18;;;;;;;37.75;20.30;;;;;;;3.20;82.77;98566.66;4900296;29;20234;-86
2021/01/04 09:22:21;;;;;;;27.17;17.45;;;;;;;3.25;82.48;98572.63;4889146;29;20228;-86
2021/01/04 09:25:00;;;;;;;34.58;18.15;;;;;;;3.22;82.20;98569.25;4855930;29;20221;-86
2021/01/04 09:28:02;;;;;;;25.65;16.60;;;;;;;3.25;81.86;98566.44;4901079;29;20240;-85
2021/01/04 09:30:29;;;;;;;26.55;17.75;;;;;;;3.27;81.50;98572.56;4876706;29;20229;-85
2021/01/04 09:33:13;;;;;;;29.02;17.50;;;;;;;3.24;81.46;98568.25;4882190;29;20257;-86
2021/01/04 09:35:45;;;;;;;28.38;16.77;;;;;;;3.20;81.36;98564.00;4877866;29;20202;-86
2021/01/04 09:38:38;;;;;;;30.13;16.92;;;;;;;3.23;81.57;98558.56;4873769;29;20218;-86
2021/01/04 09:41:32;;;;;;;30.20;18.00;;;;;;;3.20;81.65;98565.81;4861621;29;20267;-86
2021/01/04 09:44:19;;;;;;;34.85;16.75;;;;;;;3.25;81.40;98563.78;4896671;28;20221;-86
2021/01/04 09:47:09;;;;;;;25.80;16.30;;;;;;;3.29;80.70;98563.56;4898329;29;20224;-86
2021/01/04 09:50:03;;;;;;;27.52;15.70;;;;;;;3.30;80.92;98570.63;4865720;29;20238;-86
2021/01/04 09:53:10;;;;;;;26.25;15.15;;;;;;;3.24;80.97;98570.03;4891087;29;20249;-87
2021/01/04 09:56:09;;;;;;;24.25;15.15;;;;;;;3.22;81.07;98574.56;4887764;29;20233;-86
2021/01/04 09:58:59;;;;;;;24.15;15.20;;;;;;;3.20;81.40;98571.97;4823890;29;20315;-87
2021/01/04 10:02:31;;;;;;;27.40;18.15;;;;;;;3.31;81.17;98569.69;4897480;28;20225;-87
2021/01/04 10:05:15;;;;;;;25.27;16.27;;;;;;;3.37;81.25;98572.09;4874764;29;20284;-87
2021/01/04 10:07:57;;;;;;;29.20;19.27;;;;;;;3.39;81.01;98574.66;4906648;28;20224;-86
2021/01/04 10:10:51;;;;;;;26.33;16.08;;;;;;;3.48;80.29;98567.13;4834501;29;20245;-86
2021/01/04 10:13:21;;;;;;;28.80;17.95;;;;;;;3.48;79.99;98564.44;4901942;29;20231;-85
2021/01/04 10:15:58;;;;;;;30.48;18.42;;;;;;;3.37;80.36;98560.56;4900478;28;20229;-86
2021/01/04 10:18:51;;;;;;;31.95;17.90;;;;;;;3.33;80.67;98559.84;4877445;29;20237;-84
2021/01/04 10:21:38;;;;;;;26.70;16.80;;;;;;;3.20;81.18;98556.03;4910087;29;20206;-85
2021/01/04 10:24:46;;;;;;;26.25;15.90;;;;;;;3.28;81.18;98556.53;4916472;29;20274;-84
2021/01/04 10:27:20;;;;;;;28.50;17.02;;;;;;;3.25;80.99;98559.34;4866789;29;20198;-85
2021/01/04 10:30:16;;;;;;;27.88;18.77;;;;;;;3.33;81.25;98559.00;4846806;29;20217;-88
2021/01/04 10:33:24;;;;;;;27.27;17.92;;;;;;;3.21;81.29;98556.91;4865811;28;20217;-86
2021/01/04 10:36:09;;;;;;;31.38;18.52;;;;;;;3.31;81.06;98558.19;4934833;28;20198;-85
2021/01/04 10:38:41;;;;;;;26.85;16.90;;;;;;;3.19;80.97;98551.66;4932378;29;20224;-85
2021/01/04 10:41:10;;;;;;;27.10;19.38;;;;;;;3.12;81.22;98552.88;4882505;29;20225;-84
2021/01/04 10:43:43;;;;;;;31.30;19.63;;;;;;;3.18;81.50;98552.59;4921572;29;20315;-87
2021/01/04 10:49:43;;;;;;;24.55;16.08;;;;;;;3.30;79.92;98540.53;4906887;23;20321;-86
2021/01/04 10:52:20;;;;;;;32.40;20.40;;;;;;;3.26;80.37;98541.59;4900777;29;20277;-88
2021/01/04 10:54:47;;;;;;;26.85;18.17;;;;;;;3.31;80.54;98543.13;4897324;29;20236;-87
2021/01/04 10:57:28;;;;;;;28.88;17.98;;;;;;;3.27;80.60;98536.22;4862833;29;20679;-87
2021/01/04 11:00:14;;;;;;;23.67;16.42;;;;;;;3.32;80.36;98536.00;4873302;29;20249;-86
2021/01/04 11:02:47;;;;;;;37.30;22.45;;;;;;;3.34;80.39;98536.81;4902391;29;20221;-85
2021/01/04 11:05:23;;;;;;;31.40;20.13;;;;;;;3.30;80.52;98532.56;4924594;29;20216;-85
2021/01/04 11:08:13;;;;;;;34.65;21.10;;;;;;;3.29;80.83;98531.69;4891291;28;20241;-86
2021/01/04 11:10:50;;;;;;;27.27;18.65;;;;;;;3.31;80.27;98527.19;4881144;29;20210;-86
2021/01/04 11:13:32;;;;;;;25.20;17.23;;;;;;;3.26;80.14;98520.34;4890199;29;20241;-84
2021/01/04 11:16:16;;;;;;;27.60;18.90;;;;;;;3.32;80.14;98528.91;4865103;29;20603;-86
2021/01/04 11:19:33;;;;;;;24.70;16.48;;;;;;;3.33;79.88;98521.81;4879070;29;20232;-87
2021/01/04 11:22:24;;;;;;;29.50;18.27;;;;;;;3.32;80.23;98520.06;4847864;29;20230;-87
2021/01/04 11:25:01;;;;;;;27.27;18.25;;;;;;;3.40;80.19;98518.78;4862454;29;20226;-84
2021/01/04 11:27:30;;;;;;;27.52;18.63;;;;;;;3.41;80.10;98523.16;4907035;29;20226;-85
2021/01/04 11:30:15;;;;;;;24.15;16.55;;;;;;;3.47;80.00;98511.41;4883516;29;20218;-85
2021/01/04 11:33:04;;;;;;;27.10;18.60;;;;;;;3.48;80.19;98511.31;4890718;29;20214;-86
2021/01/04 11:35:54;;;;;;;26.08;16.33;;;;;;;3.40;79.34;98513.47;5424766;23;20256;-84
2021/01/04 11:38:23;;;;;;;24.13;16.17;;;;;;;3.17;80.11;98508.38;5183418;23;20726;-87
2021/01/04 11:40:55;;;;;;;28.90;17.95;;;;;;;3.29;80.51;98513.09;4883681;29;20227;-84
2021/01/04 11:43:23;;;;;;;29.00;18.10;;;;;;;3.48;80.09;98511.31;4900869;29;20225;-85
2021/01/04 11:45:59;;;;;;;27.17;18.40;;;;;;;3.50;79.99;98501.47;4902406;29;20227;-85
2021/01/04 11:48:57;;;;;;;27.90;16.70;;;;;;;3.24;80.14;98499.19;4915551;29;20307;-84
2021/01/04 11:51:43;;;;;;;26.00;16.00;;;;;;;3.36;80.72;98503.94;4902893;29;20263;-84
2021/01/04 11:54:10;;;;;;;22.13;15.23;;;;;;;3.49;80.73;98505.09;4914454;29;20202;-83
2021/01/04 11:56:40;;;;;;;26.27;17.77;;;;;;;3.51;80.25;98497.00;4889504;29;20207;-83
2021/01/04 11:59:10;;;;;;;23.40;16.30;;;;;;;3.66;79.73;98496.31;4895059;28;20233;-83
2021/01/04 12:01:38;;;;;;;25.55;16.38;;;;;;;3.48;79.77;98492.69;4901979;29;20226;-84
2021/01/04 12:04:12;;;;;;;27.83;17.75;;;;;;;3.42;80.10;98498.34;4901939;29;20226;-84
2021/01/04 12:06:40;;;;;;;26.38;17.20;;;;;;;3.49;80.15;98494.44;4881401;29;20753;-83
2021/01/04 12:09:09;;;;;;;26.85;17.20;;;;;;;3.58;79.67;98495.78;4853563;29;20217;-82
2021/01/04 12:11:41;;;;;;;26.80;16.65;;;;;;;3.60;79.63;98505.41;4905323;29;20254;-82
2021/01/04 12:14:09;;;;;;;26.08;17.23;;;;;;;3.55;79.20;98491.50;4885474;29;20260;-83
2021/01/04 12:16:36;;;;;;;27.85;16.70;;;;;;;3.54;79.11;98492.41;4881589;29;20271;-82
2021/01/04 12:19:06;;;;;;;27.58;17.40;;;;;;;3.55;79.47;98494.16;4877795;29;20222;-81
2021/01/04 12:21:35;;;;;;;25.92;16.45;;;;;;;3.47;79.39;98490.97;4896057;29;20718;-81
2021/01/04 12:24:02;;;;;;;27.40;17.00;;;;;;;3.41;80.20;98491.28;4899727;29;20210;-81
2021/01/04 12:26:29;;;;;;;27.40;17.58;;;;;;;3.57;79.90;98484.31;4899891;29;20210;-81
2021/01/04 12:28:56;;;;;;;30.02;18.20;;;;;;;3.50;79.86;98487.31;4884974;29;20222;-82
2021/01/04 12:31:23;;;;;;;26.17;17.10;;;;;;;3.48;80.00;98483.88;4885429;29;20226;-81
2021/01/04 12:33:53;;;;;;;26.50;17.65;;;;;;;3.65;79.42;98490.09;4895154;28;20250;-84
2021/01/04 12:36:26;;;;;;;29.73;16.90;;;;;;;3.71;78.82;98478.31;4896820;29;20235;-82
2021/01/04 12:38:54;;;;;;;26.33;17.88;;;;;;;3.58;79.03;98477.19;4885115;29;20235;-84
2021/01/04 12:41:22;;;;;;;30.75;18.02;;;;;;;3.59;79.26;98471.78;4855306;29;20235;-82
2021/01/04 12:43:49;;;;;;;30.95;18.30;;;;;;;3.69;79.47;98477.53;4913207;29;20286;-83